sensor_id;sensor_type;location;lat;lon;timestamp;pressure;altitude;pressure_sealevel;temperature
7882;BMP180;3986;41.884;23.466;2022-07-04T00:01:11;92339.00;;;19.70
7882;BMP180;3986;41.884;23.466;2022-07-04T00:03:38;92351.00;;;19.60
7882;BMP180;3986;41.884;23.466;2022-07-04T00:06:05;92350.00;;;19.70
7882;BMP180;3986;41.884;23.466;2022-07-04T00:08:32;92350.00;;;19.70
7882;BMP180;3986;41.884;23.466;2022-07-04T00:10:59;92341.00;;;19.50
7882;BMP180;3986;41.884;23.466;2022-07-04T00:13:27;92342.00;;;19.30
7882;BMP180;3986;41.884;23.466;2022-07-04T00:15:54;92345.00;;;19.40
7882;BMP180;3986;41.884;23.466;2022-07-04T00:18:21;92345.00;;;19.40
7882;BMP180;3986;41.884;23.466;2022-07-04T00:20:48;92338.00;;;19.10
7882;BMP180;3986;41.884;23.466;2022-07-04T00:23:14;92331.00;;;18.50
7882;BMP180;3986;41.884;23.466;2022-07-04T00:25:41;92333.00;;;18.70
7882;BMP180;3986;41.884;23.466;2022-07-04T00:28:08;92345.00;;;18.70
7882;BMP180;3986;41.884;23.466;2022-07-04T00:30:36;92338.00;;;18.70
7882;BMP180;3986;41.884;23.466;2022-07-04T00:33:03;92341.00;;;18.50
7882;BMP180;3986;41.884;23.466;2022-07-04T00:35:30;92336.00;;;18.60
7882;BMP180;3986;41.884;23.466;2022-07-04T00:37:57;92338.00;;;18.80
7882;BMP180;3986;41.884;23.466;2022-07-04T00:40:23;92344.00;;;18.90
7882;BMP180;3986;41.884;23.466;2022-07-04T00:42:50;92340.00;;;19.10
7882;BMP180;3986;41.884;23.466;2022-07-04T00:45:17;92335.00;;;19.10
7882;BMP180;3986;41.884;23.466;2022-07-04T00:47:45;92313.00;;;18.70
7882;BMP180;3986;41.884;23.466;2022-07-04T00:50:12;92337.00;;;18.60
7882;BMP180;3986;41.884;23.466;2022-07-04T00:52:39;92334.00;;;18.50
7882;BMP180;3986;41.884;23.466;2022-07-04T00:55:07;92233.00;;;18.50
7882;BMP180;3986;41.884;23.466;2022-07-04T00:57:34;92326.00;;;18.40
7882;BMP180;3986;41.884;23.466;2022-07-04T01:00:01;92329.00;;;18.30
7882;BMP180;3986;41.884;23.466;2022-07-04T01:02:28;92322.00;;;18.30
7882;BMP180;3986;41.884;23.466;2022-07-04T01:04:57;92233.00;;;18.10
7882;BMP180;3986;41.884;23.466;2022-07-04T01:07:24;92332.00;;;18.30
7882;BMP180;3986;41.884;23.466;2022-07-04T01:09:51;92329.00;;;18.10
7882;BMP180;3986;41.884;23.466;2022-07-04T01:12:25;92323.00;;;17.70
7882;BMP180;3986;41.884;23.466;2022-07-04T01:14:53;92331.00;;;17.80
7882;BMP180;3986;41.884;23.466;2022-07-04T01:17:19;92323.00;;;18.20
7882;BMP180;3986;41.884;23.466;2022-07-04T01:19:46;92307.00;;;18.10
7882;BMP180;3986;41.884;23.466;2022-07-04T01:22:15;92328.00;;;18.50
7882;BMP180;3986;41.884;23.466;2022-07-04T01:24:42;92319.00;;;18.70
7882;BMP180;3986;41.884;23.466;2022-07-04T01:27:09;92323.00;;;18.50
7882;BMP180;3986;41.884;23.466;2022-07-04T01:29:35;92324.00;;;18.00
7882;BMP180;3986;41.884;23.466;2022-07-04T01:32:06;92323.00;;;17.90
7882;BMP180;3986;41.884;23.466;2022-07-04T01:34:33;92319.00;;;17.70
7882;BMP180;3986;41.884;23.466;2022-07-04T01:37:01;92318.00;;;18.10
7882;BMP180;3986;41.884;23.466;2022-07-04T01:39:29;92316.00;;;18.30
7882;BMP180;3986;41.884;23.466;2022-07-04T01:41:56;92318.00;;;18.00
7882;BMP180;3986;41.884;23.466;2022-07-04T01:44:23;92308.00;;;17.90
7882;BMP180;3986;41.884;23.466;2022-07-04T01:46:49;92314.00;;;18.10
7882;BMP180;3986;41.884;23.466;2022-07-04T01:49:16;92320.00;;;18.40
7882;BMP180;3986;41.884;23.466;2022-07-04T01:51:44;92297.00;;;18.40
7882;BMP180;3986;41.884;23.466;2022-07-04T01:54:11;92321.00;;;17.90
7882;BMP180;3986;41.884;23.466;2022-07-04T01:56:40;92325.00;;;18.30
7882;BMP180;3986;41.884;23.466;2022-07-04T01:59:07;92321.00;;;18.30
7882;BMP180;3986;41.884;23.466;2022-07-04T02:01:35;92346.00;;;18.30
7882;BMP180;3986;41.884;23.466;2022-07-04T02:04:02;92328.00;;;18.30
7882;BMP180;3986;41.884;23.466;2022-07-04T02:06:30;92322.00;;;18.40
7882;BMP180;3986;41.884;23.466;2022-07-04T02:08:57;92324.00;;;18.30
7882;BMP180;3986;41.884;23.466;2022-07-04T02:11:44;92311.00;;;18.30
7882;BMP180;3986;41.884;23.466;2022-07-04T02:14:29;92337.00;;;18.00
7882;BMP180;3986;41.884;23.466;2022-07-04T02:16:56;92336.00;;;17.50
7882;BMP180;3986;41.884;23.466;2022-07-04T02:19:23;92326.00;;;17.40
7882;BMP180;3986;41.884;23.466;2022-07-04T02:21:50;92327.00;;;17.60
7882;BMP180;3986;41.884;23.466;2022-07-04T02:24:17;92326.00;;;17.80
7882;BMP180;3986;41.884;23.466;2022-07-04T02:26:45;92329.00;;;18.00
7882;BMP180;3986;41.884;23.466;2022-07-04T02:29:12;92334.00;;;17.90
7882;BMP180;3986;41.884;23.466;2022-07-04T02:31:39;92337.00;;;17.60
7882;BMP180;3986;41.884;23.466;2022-07-04T02:34:06;92345.00;;;17.70
7882;BMP180;3986;41.884;23.466;2022-07-04T02:36:33;92331.00;;;17.90
7882;BMP180;3986;41.884;23.466;2022-07-04T02:38:59;92334.00;;;17.90
7882;BMP180;3986;41.884;23.466;2022-07-04T02:41:26;92330.00;;;18.00
7882;BMP180;3986;41.884;23.466;2022-07-04T02:43:55;92337.00;;;18.10
7882;BMP180;3986;41.884;23.466;2022-07-04T02:46:22;92349.00;;;17.90
7882;BMP180;3986;41.884;23.466;2022-07-04T02:48:49;92285.00;;;17.90
7882;BMP180;3986;41.884;23.466;2022-07-04T02:51:16;92341.00;;;17.80
7882;BMP180;3986;41.884;23.466;2022-07-04T02:53:43;92344.00;;;17.90
7882;BMP180;3986;41.884;23.466;2022-07-04T02:56:10;92341.00;;;17.90
7882;BMP180;3986;41.884;23.466;2022-07-04T02:58:37;92338.00;;;17.80
7882;BMP180;3986;41.884;23.466;2022-07-04T03:01:05;92333.00;;;17.70
7882;BMP180;3986;41.884;23.466;2022-07-04T03:03:31;92336.00;;;17.70
7882;BMP180;3986;41.884;23.466;2022-07-04T03:05:58;92328.00;;;17.70
7882;BMP180;3986;41.884;23.466;2022-07-04T03:08:25;92345.00;;;17.90
7882;BMP180;3986;41.884;23.466;2022-07-04T03:10:52;92341.00;;;17.90
7882;BMP180;3986;41.884;23.466;2022-07-04T03:13:19;92341.00;;;17.80
7882;BMP180;3986;41.884;23.466;2022-07-04T03:15:46;92350.00;;;17.70
7882;BMP180;3986;41.884;23.466;2022-07-04T03:18:14;92340.00;;;17.80
7882;BMP180;3986;41.884;23.466;2022-07-04T03:20:41;92347.00;;;17.70
7882;BMP180;3986;41.884;23.466;2022-07-04T03:23:08;92335.00;;;17.60
7882;BMP180;3986;41.884;23.466;2022-07-04T03:25:35;92306.00;;;17.50
7882;BMP180;3986;41.884;23.466;2022-07-04T03:28:02;92344.00;;;17.50
7882;BMP180;3986;41.884;23.466;2022-07-04T03:30:29;92343.00;;;17.50
7882;BMP180;3986;41.884;23.466;2022-07-04T03:32:56;92345.00;;;17.80
7882;BMP180;3986;41.884;23.466;2022-07-04T03:35:24;92356.00;;;17.80
7882;BMP180;3986;41.884;23.466;2022-07-04T03:37:52;92216.00;;;17.40
7882;BMP180;3986;41.884;23.466;2022-07-04T03:40:19;92352.00;;;17.00
7882;BMP180;3986;41.884;23.466;2022-07-04T03:42:46;92359.00;;;17.60
7882;BMP180;3986;41.884;23.466;2022-07-04T03:45:14;92355.00;;;17.70
7882;BMP180;3986;41.884;23.466;2022-07-04T03:47:41;92361.00;;;17.70
7882;BMP180;3986;41.884;23.466;2022-07-04T03:50:08;92362.00;;;17.80
7882;BMP180;3986;41.884;23.466;2022-07-04T03:52:36;92241.00;;;17.90
7882;BMP180;3986;41.884;23.466;2022-07-04T03:55:04;92365.00;;;18.00
7882;BMP180;3986;41.884;23.466;2022-07-04T03:57:31;92360.00;;;18.00
7882;BMP180;3986;41.884;23.466;2022-07-04T03:59:57;92361.00;;;18.00
7882;BMP180;3986;41.884;23.466;2022-07-04T04:02:24;92359.00;;;18.00
7882;BMP180;3986;41.884;23.466;2022-07-04T04:04:51;92369.00;;;18.00
7882;BMP180;3986;41.884;23.466;2022-07-04T04:07:37;92364.00;;;18.00
7882;BMP180;3986;41.884;23.466;2022-07-04T04:10:05;92356.00;;;18.10
7882;BMP180;3986;41.884;23.466;2022-07-04T04:12:32;92356.00;;;17.90
7882;BMP180;3986;41.884;23.466;2022-07-04T04:14:59;92363.00;;;18.10
7882;BMP180;3986;41.884;23.466;2022-07-04T04:17:25;92364.00;;;18.30
7882;BMP180;3986;41.884;23.466;2022-07-04T04:19:52;92361.00;;;18.20
7882;BMP180;3986;41.884;23.466;2022-07-04T04:22:19;92359.00;;;18.20
7882;BMP180;3986;41.884;23.466;2022-07-04T04:24:47;92354.00;;;18.30
7882;BMP180;3986;41.884;23.466;2022-07-04T04:27:14;92358.00;;;18.50
7882;BMP180;3986;41.884;23.466;2022-07-04T04:29:41;92362.00;;;18.70
7882;BMP180;3986;41.884;23.466;2022-07-04T04:32:08;92364.00;;;18.80
7882;BMP180;3986;41.884;23.466;2022-07-04T04:34:34;92362.00;;;19.00
7882;BMP180;3986;41.884;23.466;2022-07-04T04:37:01;92364.00;;;19.00
7882;BMP180;3986;41.884;23.466;2022-07-04T04:39:28;92263.00;;;19.20
7882;BMP180;3986;41.884;23.466;2022-07-04T04:41:57;92373.00;;;19.20
7882;BMP180;3986;41.884;23.466;2022-07-04T04:44:23;92368.00;;;19.20
7882;BMP180;3986;41.884;23.466;2022-07-04T04:46:50;92368.00;;;19.00
7882;BMP180;3986;41.884;23.466;2022-07-04T04:49:17;92364.00;;;19.00
7882;BMP180;3986;41.884;23.466;2022-07-04T04:51:44;92367.00;;;19.20
7882;BMP180;3986;41.884;23.466;2022-07-04T04:54:11;92364.00;;;19.30
7882;BMP180;3986;41.884;23.466;2022-07-04T04:56:38;92370.00;;;19.20
7882;BMP180;3986;41.884;23.466;2022-07-04T04:59:06;92371.00;;;19.40
7882;BMP180;3986;41.884;23.466;2022-07-04T05:01:33;92364.00;;;19.70
7882;BMP180;3986;41.884;23.466;2022-07-04T05:04:00;92360.00;;;18.90
7882;BMP180;3986;41.884;23.466;2022-07-04T05:06:27;92372.00;;;19.40
7882;BMP180;3986;41.884;23.466;2022-07-04T05:08:54;92372.00;;;19.30
7882;BMP180;3986;41.884;23.466;2022-07-04T05:11:21;92368.00;;;19.50
7882;BMP180;3986;41.884;23.466;2022-07-04T05:13:48;92234.00;;;19.90
7882;BMP180;3986;41.884;23.466;2022-07-04T05:16:16;92365.00;;;19.80
7882;BMP180;3986;41.884;23.466;2022-07-04T05:18:43;92362.00;;;19.90
7882;BMP180;3986;41.884;23.466;2022-07-04T05:21:09;92366.00;;;20.50
7882;BMP180;3986;41.884;23.466;2022-07-04T05:23:36;92376.00;;;20.40
7882;BMP180;3986;41.884;23.466;2022-07-04T05:26:04;92269.00;;;20.10
7882;BMP180;3986;41.884;23.466;2022-07-04T05:28:31;92366.00;;;20.60
7882;BMP180;3986;41.884;23.466;2022-07-04T05:30:58;92365.00;;;20.80
7882;BMP180;3986;41.884;23.466;2022-07-04T05:33:26;92360.00;;;20.70
7882;BMP180;3986;41.884;23.466;2022-07-04T05:35:53;92359.00;;;20.90
7882;BMP180;3986;41.884;23.466;2022-07-04T05:38:19;92362.00;;;20.90
7882;BMP180;3986;41.884;23.466;2022-07-04T05:40:46;92360.00;;;21.00
7882;BMP180;3986;41.884;23.466;2022-07-04T05:43:13;92367.00;;;21.30
7882;BMP180;3986;41.884;23.466;2022-07-04T05:45:40;92361.00;;;21.30
7882;BMP180;3986;41.884;23.466;2022-07-04T05:48:08;92360.00;;;21.40
7882;BMP180;3986;41.884;23.466;2022-07-04T05:50:36;92366.00;;;21.50
7882;BMP180;3986;41.884;23.466;2022-07-04T05:53:03;92363.00;;;21.80
7882;BMP180;3986;41.884;23.466;2022-07-04T05:55:29;92363.00;;;22.00
7882;BMP180;3986;41.884;23.466;2022-07-04T05:57:56;92359.00;;;22.00
7882;BMP180;3986;41.884;23.466;2022-07-04T06:00:23;92360.00;;;21.50
7882;BMP180;3986;41.884;23.466;2022-07-04T06:02:50;92355.00;;;21.80
7882;BMP180;3986;41.884;23.466;2022-07-04T06:05:17;92357.00;;;21.90
7882;BMP180;3986;41.884;23.466;2022-07-04T06:07:45;92359.00;;;22.30
7882;BMP180;3986;41.884;23.466;2022-07-04T06:10:13;92367.00;;;22.50
7882;BMP180;3986;41.884;23.466;2022-07-04T06:12:40;92356.00;;;22.40
7882;BMP180;3986;41.884;23.466;2022-07-04T06:15:08;92366.00;;;21.30
7882;BMP180;3986;41.884;23.466;2022-07-04T06:17:35;92356.00;;;22.20
7882;BMP180;3986;41.884;23.466;2022-07-04T06:20:03;92349.00;;;22.10
7882;BMP180;3986;41.884;23.466;2022-07-04T06:22:38;92341.00;;;22.40
7882;BMP180;3986;41.884;23.466;2022-07-04T06:25:10;92340.00;;;22.60
7882;BMP180;3986;41.884;23.466;2022-07-04T06:27:37;92340.00;;;23.10
7882;BMP180;3986;41.884;23.466;2022-07-04T06:30:05;92336.00;;;23.00
7882;BMP180;3986;41.884;23.466;2022-07-04T06:32:43;92344.00;;;23.00
7882;BMP180;3986;41.884;23.466;2022-07-04T06:35:10;92362.00;;;23.30
7882;BMP180;3986;41.884;23.466;2022-07-04T06:37:56;92303.00;;;23.50
7882;BMP180;3986;41.884;23.466;2022-07-04T06:40:24;92237.00;;;23.90
7882;BMP180;3986;41.884;23.466;2022-07-04T06:42:51;92334.00;;;22.70
7882;BMP180;3986;41.884;23.466;2022-07-04T06:45:18;92236.00;;;23.20
7882;BMP180;3986;41.884;23.466;2022-07-04T06:47:45;92318.00;;;22.60
7882;BMP180;3986;41.884;23.466;2022-07-04T06:50:12;92259.00;;;22.50
7882;BMP180;3986;41.884;23.466;2022-07-04T06:52:39;92324.00;;;23.60
7882;BMP180;3986;41.884;23.466;2022-07-04T06:55:07;92342.00;;;24.20
7882;BMP180;3986;41.884;23.466;2022-07-04T06:57:35;92326.00;;;24.30
7882;BMP180;3986;41.884;23.466;2022-07-04T07:00:03;92338.00;;;24.10
7882;BMP180;3986;41.884;23.466;2022-07-04T07:02:30;92303.00;;;24.50
7882;BMP180;3986;41.884;23.466;2022-07-04T07:04:57;92307.00;;;24.70
7882;BMP180;3986;41.884;23.466;2022-07-04T07:07:24;92315.00;;;25.10
7882;BMP180;3986;41.884;23.466;2022-07-04T07:09:52;92306.00;;;24.70
7882;BMP180;3986;41.884;23.466;2022-07-04T07:12:19;92305.00;;;24.40
7882;BMP180;3986;41.884;23.466;2022-07-04T07:14:48;92304.00;;;25.20
7882;BMP180;3986;41.884;23.466;2022-07-04T07:17:15;92296.00;;;25.10
7882;BMP180;3986;41.884;23.466;2022-07-04T07:19:42;92296.00;;;25.10
7882;BMP180;3986;41.884;23.466;2022-07-04T07:22:09;92297.00;;;25.80
7882;BMP180;3986;41.884;23.466;2022-07-04T07:24:36;92198.00;;;25.90
7882;BMP180;3986;41.884;23.466;2022-07-04T07:27:04;92289.00;;;25.80
7882;BMP180;3986;41.884;23.466;2022-07-04T07:29:31;92287.00;;;25.90
7882;BMP180;3986;41.884;23.466;2022-07-04T07:31:59;92283.00;;;26.60
7882;BMP180;3986;41.884;23.466;2022-07-04T07:34:26;92278.00;;;26.40
7882;BMP180;3986;41.884;23.466;2022-07-04T07:36:53;92269.00;;;26.90
7882;BMP180;3986;41.884;23.466;2022-07-04T07:39:20;92292.00;;;27.10
7882;BMP180;3986;41.884;23.466;2022-07-04T07:41:47;92222.00;;;26.80
7882;BMP180;3986;41.884;23.466;2022-07-04T07:44:14;92241.00;;;27.30
7882;BMP180;3986;41.884;23.466;2022-07-04T07:46:41;92281.00;;;27.20
7882;BMP180;3986;41.884;23.466;2022-07-04T07:49:09;92277.00;;;27.50
7882;BMP180;3986;41.884;23.466;2022-07-04T07:51:36;92281.00;;;27.20
7882;BMP180;3986;41.884;23.466;2022-07-04T07:54:03;92171.00;;;27.30
7882;BMP180;3986;41.884;23.466;2022-07-04T07:56:30;92280.00;;;27.70
7882;BMP180;3986;41.884;23.466;2022-07-04T07:58:57;92217.00;;;27.70
7882;BMP180;3986;41.884;23.466;2022-07-04T08:01:24;92151.00;;;27.70
7882;BMP180;3986;41.884;23.466;2022-07-04T08:03:51;92282.00;;;27.10
7882;BMP180;3986;41.884;23.466;2022-07-04T08:06:45;92287.00;;;27.20
7882;BMP180;3986;41.884;23.466;2022-07-04T08:09:12;92283.00;;;27.30
7882;BMP180;3986;41.884;23.466;2022-07-04T08:11:40;92277.00;;;27.60
7882;BMP180;3986;41.884;23.466;2022-07-04T08:14:07;92234.00;;;27.90
7882;BMP180;3986;41.884;23.466;2022-07-04T08:16:34;92284.00;;;27.10
7882;BMP180;3986;41.884;23.466;2022-07-04T08:19:01;92279.00;;;26.40
7882;BMP180;3986;41.884;23.466;2022-07-04T08:21:28;92280.00;;;26.20
7882;BMP180;3986;41.884;23.466;2022-07-04T08:23:56;92286.00;;;27.10
7882;BMP180;3986;41.884;23.466;2022-07-04T08:26:23;92283.00;;;28.00
7882;BMP180;3986;41.884;23.466;2022-07-04T08:28:51;92277.00;;;28.40
7882;BMP180;3986;41.884;23.466;2022-07-04T08:31:18;92281.00;;;28.30
7882;BMP180;3986;41.884;23.466;2022-07-04T08:33:45;92272.00;;;28.10
7882;BMP180;3986;41.884;23.466;2022-07-04T08:36:13;92278.00;;;28.80
7882;BMP180;3986;41.884;23.466;2022-07-04T08:38:39;92273.00;;;28.30
7882;BMP180;3986;41.884;23.466;2022-07-04T08:41:08;92282.00;;;28.40
7882;BMP180;3986;41.884;23.466;2022-07-04T08:43:34;92275.00;;;28.50
7882;BMP180;3986;41.884;23.466;2022-07-04T08:46:04;92278.00;;;28.20
7882;BMP180;3986;41.884;23.466;2022-07-04T08:48:32;92267.00;;;28.60
7882;BMP180;3986;41.884;23.466;2022-07-04T08:51:04;92248.00;;;29.10
7882;BMP180;3986;41.884;23.466;2022-07-04T08:53:38;92275.00;;;28.50
7882;BMP180;3986;41.884;23.466;2022-07-04T08:56:08;92267.00;;;28.40
7882;BMP180;3986;41.884;23.466;2022-07-04T08:58:54;92264.00;;;28.70
7882;BMP180;3986;41.884;23.466;2022-07-04T09:01:22;92257.00;;;27.80
7882;BMP180;3986;41.884;23.466;2022-07-04T09:03:50;92182.00;;;29.20
7882;BMP180;3986;41.884;23.466;2022-07-04T09:06:17;92267.00;;;29.10
7882;BMP180;3986;41.884;23.466;2022-07-04T09:08:44;92261.00;;;28.70
7882;BMP180;3986;41.884;23.466;2022-07-04T09:11:13;92265.00;;;28.70
7882;BMP180;3986;41.884;23.466;2022-07-04T09:13:39;92262.00;;;29.10
7882;BMP180;3986;41.884;23.466;2022-07-04T09:16:06;92255.00;;;29.40
7882;BMP180;3986;41.884;23.466;2022-07-04T09:18:35;92277.00;;;30.60
7882;BMP180;3986;41.884;23.466;2022-07-04T09:21:03;92258.00;;;30.50
7882;BMP180;3986;41.884;23.466;2022-07-04T09:23:32;92259.00;;;30.40
7882;BMP180;3986;41.884;23.466;2022-07-04T09:26:13;92259.00;;;32.40
7882;BMP180;3986;41.884;23.466;2022-07-04T09:28:42;92231.00;;;32.60
7882;BMP180;3986;41.884;23.466;2022-07-04T09:31:17;92182.00;;;35.00
7882;BMP180;3986;41.884;23.466;2022-07-04T09:33:49;92250.00;;;34.40
7882;BMP180;3986;41.884;23.466;2022-07-04T09:36:18;92166.00;;;35.20
7882;BMP180;3986;41.884;23.466;2022-07-04T09:39:03;92284.00;;;36.60
7882;BMP180;3986;41.884;23.466;2022-07-04T09:41:49;92261.00;;;34.40
7882;BMP180;3986;41.884;23.466;2022-07-04T09:44:16;92254.00;;;37.50
7882;BMP180;3986;41.884;23.466;2022-07-04T09:46:43;92273.00;;;35.40
7882;BMP180;3986;41.884;23.466;2022-07-04T09:49:11;92248.00;;;36.00
7882;BMP180;3986;41.884;23.466;2022-07-04T09:51:39;92246.00;;;40.30
7882;BMP180;3986;41.884;23.466;2022-07-04T09:54:14;92244.00;;;37.00
7882;BMP180;3986;41.884;23.466;2022-07-04T09:56:44;92273.00;;;37.90
7882;BMP180;3986;41.884;23.466;2022-07-04T09:59:11;92244.00;;;39.30
7882;BMP180;3986;41.884;23.466;2022-07-04T10:01:38;92240.00;;;41.00
7882;BMP180;3986;41.884;23.466;2022-07-04T10:04:06;92238.00;;;41.10
7882;BMP180;3986;41.884;23.466;2022-07-04T10:06:34;92232.00;;;38.10
7882;BMP180;3986;41.884;23.466;2022-07-04T10:09:11;92259.00;;;40.60
7882;BMP180;3986;41.884;23.466;2022-07-04T10:11:39;92240.00;;;40.20
7882;BMP180;3986;41.884;23.466;2022-07-04T10:14:09;92164.00;;;39.30
7882;BMP180;3986;41.884;23.466;2022-07-04T10:16:37;92239.00;;;36.70
7882;BMP180;3986;41.884;23.466;2022-07-04T10:19:04;92231.00;;;35.30
7882;BMP180;3986;41.884;23.466;2022-07-04T10:21:32;92239.00;;;35.50
7882;BMP180;3986;41.884;23.466;2022-07-04T10:23:59;92237.00;;;36.20
7882;BMP180;3986;41.884;23.466;2022-07-04T10:26:28;92245.00;;;37.90
7882;BMP180;3986;41.884;23.466;2022-07-04T10:28:56;92246.00;;;39.40
7882;BMP180;3986;41.884;23.466;2022-07-04T10:31:26;92250.00;;;39.40
7882;BMP180;3986;41.884;23.466;2022-07-04T10:33:54;92254.00;;;39.30
7882;BMP180;3986;41.884;23.466;2022-07-04T10:36:23;92226.00;;;38.60
7882;BMP180;3986;41.884;23.466;2022-07-04T10:38:54;92243.00;;;37.10
7882;BMP180;3986;41.884;23.466;2022-07-04T10:41:22;92246.00;;;37.20
7882;BMP180;3986;41.884;23.466;2022-07-04T10:43:54;92247.00;;;35.30
7882;BMP180;3986;41.884;23.466;2022-07-04T10:46:28;92234.00;;;35.00
7882;BMP180;3986;41.884;23.466;2022-07-04T10:48:56;92233.00;;;36.80
7882;BMP180;3986;41.884;23.466;2022-07-04T10:51:34;92235.00;;;35.60
7882;BMP180;3986;41.884;23.466;2022-07-04T10:54:05;92125.00;;;36.60
7882;BMP180;3986;41.884;23.466;2022-07-04T10:56:36;92230.00;;;34.40
7882;BMP180;3986;41.884;23.466;2022-07-04T10:59:07;92246.00;;;34.40
7882;BMP180;3986;41.884;23.466;2022-07-04T11:01:36;92228.00;;;35.00
7882;BMP180;3986;41.884;23.466;2022-07-04T11:04:03;92219.00;;;34.10
7882;BMP180;3986;41.884;23.466;2022-07-04T11:06:49;92226.00;;;32.60
7882;BMP180;3986;41.884;23.466;2022-07-04T11:09:18;92244.00;;;33.20
7882;BMP180;3986;41.884;23.466;2022-07-04T11:11:50;92219.00;;;32.80
7882;BMP180;3986;41.884;23.466;2022-07-04T11:14:45;92226.00;;;33.40
7882;BMP180;3986;41.884;23.466;2022-07-04T11:17:14;92215.00;;;32.90
7882;BMP180;3986;41.884;23.466;2022-07-04T11:19:42;92219.00;;;31.90
7882;BMP180;3986;41.884;23.466;2022-07-04T11:22:09;92215.00;;;32.40
7882;BMP180;3986;41.884;23.466;2022-07-04T11:24:37;92214.00;;;31.70
7882;BMP180;3986;41.884;23.466;2022-07-04T11:27:07;92207.00;;;31.50
7882;BMP180;3986;41.884;23.466;2022-07-04T11:29:34;92214.00;;;32.70
7882;BMP180;3986;41.884;23.466;2022-07-04T11:32:02;92210.00;;;32.80
7882;BMP180;3986;41.884;23.466;2022-07-04T11:34:33;92214.00;;;31.30
7882;BMP180;3986;41.884;23.466;2022-07-04T11:37:02;92200.00;;;31.70
7882;BMP180;3986;41.884;23.466;2022-07-04T11:39:29;92202.00;;;31.50
7882;BMP180;3986;41.884;23.466;2022-07-04T11:41:57;92200.00;;;31.60
7882;BMP180;3986;41.884;23.466;2022-07-04T11:44:42;92201.00;;;31.80
7882;BMP180;3986;41.884;23.466;2022-07-04T11:47:32;92192.00;;;31.50
7882;BMP180;3986;41.884;23.466;2022-07-04T11:50:02;92184.00;;;32.30
7882;BMP180;3986;41.884;23.466;2022-07-04T11:52:30;92130.00;;;32.10
7882;BMP180;3986;41.884;23.466;2022-07-04T11:55:00;92193.00;;;32.30
7882;BMP180;3986;41.884;23.466;2022-07-04T11:57:29;92184.00;;;31.90
7882;BMP180;3986;41.884;23.466;2022-07-04T11:59:59;92194.00;;;32.50
7882;BMP180;3986;41.884;23.466;2022-07-04T12:02:27;92191.00;;;31.80
7882;BMP180;3986;41.884;23.466;2022-07-04T12:04:54;92190.00;;;31.60
7882;BMP180;3986;41.884;23.466;2022-07-04T12:07:24;92190.00;;;31.30
7882;BMP180;3986;41.884;23.466;2022-07-04T12:09:52;92192.00;;;31.20
7882;BMP180;3986;41.884;23.466;2022-07-04T12:12:20;92108.00;;;31.70
7882;BMP180;3986;41.884;23.466;2022-07-04T12:15:01;92188.00;;;31.90
7882;BMP180;3986;41.884;23.466;2022-07-04T12:17:34;92194.00;;;32.50
7882;BMP180;3986;41.884;23.466;2022-07-04T12:20:03;92181.00;;;32.60
7882;BMP180;3986;41.884;23.466;2022-07-04T12:22:39;92188.00;;;32.70
7882;BMP180;3986;41.884;23.466;2022-07-04T12:25:10;92193.00;;;32.40
7882;BMP180;3986;41.884;23.466;2022-07-04T12:27:51;92187.00;;;32.00
7882;BMP180;3986;41.884;23.466;2022-07-04T12:30:18;92187.00;;;32.30
7882;BMP180;3986;41.884;23.466;2022-07-04T12:32:48;92177.00;;;31.50
7882;BMP180;3986;41.884;23.466;2022-07-04T12:35:38;92176.00;;;31.20
7882;BMP180;3986;41.884;23.466;2022-07-04T12:38:08;92201.00;;;31.10
7882;BMP180;3986;41.884;23.466;2022-07-04T12:40:36;92192.00;;;31.30
7882;BMP180;3986;41.884;23.466;2022-07-04T12:43:03;92175.00;;;31.40
7882;BMP180;3986;41.884;23.466;2022-07-04T12:45:44;92179.00;;;31.30
7882;BMP180;3986;41.884;23.466;2022-07-04T12:48:19;92201.00;;;30.40
7882;BMP180;3986;41.884;23.466;2022-07-04T12:50:47;92174.00;;;30.80
7882;BMP180;3986;41.884;23.466;2022-07-04T12:53:16;92176.00;;;30.90
7882;BMP180;3986;41.884;23.466;2022-07-04T12:55:43;92177.00;;;30.80
7882;BMP180;3986;41.884;23.466;2022-07-04T12:58:10;92185.00;;;30.70
7882;BMP180;3986;41.884;23.466;2022-07-04T13:00:37;91971.00;;;30.50
7882;BMP180;3986;41.884;23.466;2022-07-04T13:03:04;92142.00;;;30.70
7882;BMP180;3986;41.884;23.466;2022-07-04T13:05:33;92169.00;;;30.60
7882;BMP180;3986;41.884;23.466;2022-07-04T13:08:01;92151.00;;;30.80
7882;BMP180;3986;41.884;23.466;2022-07-04T13:10:30;92170.00;;;31.00
7882;BMP180;3986;41.884;23.466;2022-07-04T13:12:57;92166.00;;;30.90
7882;BMP180;3986;41.884;23.466;2022-07-04T13:15:24;92160.00;;;30.90
7882;BMP180;3986;41.884;23.466;2022-07-04T13:17:51;92165.00;;;30.10
7882;BMP180;3986;41.884;23.466;2022-07-04T13:20:19;92158.00;;;30.70
7882;BMP180;3986;41.884;23.466;2022-07-04T13:22:46;92152.00;;;30.00
7882;BMP180;3986;41.884;23.466;2022-07-04T13:25:13;92150.00;;;30.70
7882;BMP180;3986;41.884;23.466;2022-07-04T13:27:41;92152.00;;;30.50
7882;BMP180;3986;41.884;23.466;2022-07-04T13:30:08;92142.00;;;31.00
7882;BMP180;3986;41.884;23.466;2022-07-04T13:32:35;92142.00;;;31.00
7882;BMP180;3986;41.884;23.466;2022-07-04T13:35:03;92142.00;;;30.90
7882;BMP180;3986;41.884;23.466;2022-07-04T13:37:30;92161.00;;;31.20
7882;BMP180;3986;41.884;23.466;2022-07-04T13:39:57;92129.00;;;30.80
7882;BMP180;3986;41.884;23.466;2022-07-04T13:42:24;92137.00;;;31.30
7882;BMP180;3986;41.884;23.466;2022-07-04T13:45:10;92132.00;;;29.90
7882;BMP180;3986;41.884;23.466;2022-07-04T13:47:39;92131.00;;;30.60
7882;BMP180;3986;41.884;23.466;2022-07-04T13:50:07;92116.00;;;30.80
7882;BMP180;3986;41.884;23.466;2022-07-04T13:52:34;92122.00;;;30.60
7882;BMP180;3986;41.884;23.466;2022-07-04T13:55:00;92127.00;;;30.50
7882;BMP180;3986;41.884;23.466;2022-07-04T13:57:27;92113.00;;;30.50
7882;BMP180;3986;41.884;23.466;2022-07-04T13:59:54;92120.00;;;30.30
7882;BMP180;3986;41.884;23.466;2022-07-04T14:02:22;92129.00;;;30.50
7882;BMP180;3986;41.884;23.466;2022-07-04T14:04:49;92127.00;;;31.10
7882;BMP180;3986;41.884;23.466;2022-07-04T14:07:16;92114.00;;;31.00
7882;BMP180;3986;41.884;23.466;2022-07-04T14:09:43;92109.00;;;30.80
7882;BMP180;3986;41.884;23.466;2022-07-04T14:12:12;92113.00;;;30.70
7882;BMP180;3986;41.884;23.466;2022-07-04T14:14:39;92112.00;;;30.90
7882;BMP180;3986;41.884;23.466;2022-07-04T14:17:06;92116.00;;;31.00
7882;BMP180;3986;41.884;23.466;2022-07-04T14:19:35;92114.00;;;30.50
7882;BMP180;3986;41.884;23.466;2022-07-04T14:22:02;92112.00;;;30.10
7882;BMP180;3986;41.884;23.466;2022-07-04T14:24:29;92118.00;;;30.50
7882;BMP180;3986;41.884;23.466;2022-07-04T14:26:55;92113.00;;;30.40
7882;BMP180;3986;41.884;23.466;2022-07-04T14:29:22;92107.00;;;30.70